TAF KPMD
AMD KPMD 090833Z 0909/1006 23012KT P6SM BKN022 FM091600 24025G30KT P6SM VCSH BKN025 FM092000 28030G35KT 4SM -RA BR BKN020 FM100400 28020G30KT P6SM SCT020=
METAR KPMD
WC KPMD
WS KPMD
WV KPMD